Latest Weather Observations for Moorabbin Airport

IDV60901

Issued at 8:31 pm EST Sunday 28 August 2016 (issued every 10 minutes, with the page automatically refreshed every 10 minutes)

About weather observations | Map of Melbourne area stations | Latest observations for Melbourne area | Other Formats
Station Details ID: 086077 Name: MOORABBIN AIRPORT Lat: -37.98 Lon: 145.10 Height: 12.1 m
Data from the previous 72 hours. | See also: Recent months at Moorabbin Airport
Date/Time
EST
Temp
°C
App
Temp
°C
Dew
Point
°C
Rel
Hum
%
Delta-T
°C
Wind Press
QNH
hPa
Press
MSL
hPa
Rain since
9am
mm
Dir  Spd
km/h
Gust
km/h
Spd
kts
Gust
kts
28/08:30pm 12.6 9.0 6.9 68 2.7 N 15 20 8 11 1021.2 1021.3 0.0
28/08:00pm 12.6 9.4 6.9 68 2.7 N 13 17 7 9 1020.8 1020.9 0.0
28/07:30pm 12.5 9.2 6.3 66 2.9 N 13 17 7 9 1020.6 1020.7 0.0
28/07:00pm 13.9 10.7 7.0 63 3.3 N 13 15 7 8 1020.4 1020.5 0.0
28/06:30pm 14.5 10.6 7.1 61 3.6 N 17 24 9 13 1019.9 1019.9 0.0
28/06:00pm 15.0 12.9 6.8 58 4.0 N 7 11 4 6 1019.6 1019.6 0.0
28/05:30pm 16.1 13.5 6.3 52 4.8 NNW 9 11 5 6 1019.4 1019.4 0.0
28/05:00pm 16.8 14.6 5.4 47 5.5 WNW 6 7 3 4 1019.3 1019.3 0.0
28/04:30pm 16.8 14.5 4.8 45 5.7 W 6 7 3 4 1019.1 1019.1 0.0
28/04:00pm 16.6 13.7 4.6 45 5.6 WSW 9 13 5 7 1019.0 1019.0 0.0
28/03:30pm 16.8 12.3 4.2 43 5.9 WSW 17 20 9 11 1019.1 1019.1 0.0
28/03:00pm 17.4 12.7 5.0 44 5.9 SW 19 22 10 12 1019.0 1019.0 0.0
28/02:30pm 16.7 12.5 5.6 48 5.3 SSW 17 22 9 12 1018.9 1018.9 0.0
28/02:00pm 16.7 12.4 5.3 47 5.4 SW 17 20 9 11 1019.0 1019.0 0.0
28/01:30pm 17.2 14.0 4.9 44 5.9 SSW 11 17 6 9 1019.1 1019.1 0.0
28/01:00pm 17.2 13.2 4.9 44 5.8 N 15 20 8 11 1019.3 1019.3 0.0
28/12:30pm 16.3 13.2 5.6 49 5.1 N 11 17 6 9 1019.9 1019.9 0.0
28/12:00pm 15.7 12.2 5.6 51 4.8 N 13 19 7 10 1020.2 1020.3 0.0
28/11:30am 14.9 10.6 5.1 52 4.6 N 17 24 9 13 1020.4 1020.5 0.0
28/11:00am 14.1 9.3 4.9 54 4.3 N 19 28 10 15 1020.4 1020.5 0.0
28/10:30am 13.2 8.8 4.6 56 3.9 N 17 24 9 13 1020.4 1020.5 0.0
28/10:00am 12.7 7.9 4.4 57 3.8 N 19 24 10 13 1020.3 1020.4 0.0
28/09:30am 12.5 7.4 4.2 57 3.8 N 20 26 11 14 1020.3 1020.4 0.0
28/09:00am 12.0 7.5 4.0 58 3.6 N 17 28 9 15 1020.3 1020.4 0.0
28/08:30am 11.4 6.3 4.2 61 3.2 N 20 28 11 15 1020.2 1020.3 0.0
28/08:00am 11.0 6.0 3.8 61 3.2 N 19 26 10 14 1019.9 1019.9 0.0
28/07:30am 10.9 5.3 3.5 60 3.3 N 22 32 12 17 1019.6 1019.6 0.0
28/07:00am 11.0 5.0 3.5 60 3.3 N 24 33 13 18 1019.3 1019.3 0.0
28/06:30am 11.0 5.4 3.3 59 3.4 NNW 22 32 12 17 1019.1 1019.1 0.0
28/06:00am 10.8 4.8 3.6 61 3.2 N 24 33 13 18 1018.7 1018.7 0.0
28/05:30am 10.8 4.8 3.6 61 3.2 N 24 30 13 16 1018.6 1018.6 0.0
28/05:00am 11.0 3.9 3.5 60 3.3 N 30 41 16 22 1018.3 1018.3 0.0
28/04:30am 10.9 4.2 3.7 61 3.2 N 28 39 15 21 1018.2 1018.2 0.0
28/04:00am 11.1 5.1 3.6 60 3.3 N 24 39 13 21 1018.1 1018.1 0.0
28/03:30am 11.1 5.1 3.6 60 3.3 N 24 33 13 18 1018.2 1018.2 0.0
28/03:00am 11.1 4.4 3.9 61 3.2 N 28 41 15 22 1018.0 1018.0 0.0
28/02:30am 11.2 4.5 3.7 60 3.3 N 28 41 15 22 1018.2 1018.2 0.0
28/02:00am 11.1 4.5 4.1 62 3.1 N 28 39 15 21 1018.2 1018.2 0.0
28/01:30am 11.3 4.3 4.3 62 3.1 N 30 39 16 21 1018.4 1018.4 0.0
28/01:00am 11.7 4.3 4.2 60 3.4 N 32 43 17 23 1018.4 1018.4 0.0
28/12:30am 11.8 3.9 4.3 60 3.4 N 35 46 19 25 1018.4 1018.4 0.0
28/12:00am 11.7 5.1 4.2 60 3.4 N 28 41 15 22 1018.8 1018.8 0.0
 
Date/Time
EST
Temp
°C
App
Temp
°C
Dew
Point
°C
Rel
Hum
%
Delta-T
°C
Wind Press
QNH
hPa
Press
MSL
hPa
Rain since
9am
mm
Dir  Spd
km/h
Gust
km/h
Spd
kts
Gust
kts
27/11:30pm 11.7 5.5 4.4 61 3.3 N 26 37 14 20 1018.9 1018.9 0.0
27/11:00pm 11.9 5.8 4.6 61 3.3 N 26 35 14 19 1018.8 1018.8 0.0
27/10:30pm 11.7 5.6 4.7 62 3.2 N 26 37 14 20 1019.2 1019.2 0.0
27/10:00pm 11.8 5.7 4.8 62 3.2 N 26 37 14 20 1019.5 1019.5 0.0
27/09:30pm 11.5 5.4 4.7 63 3.1 N 26 35 14 19 1019.6 1019.6 0.0
27/09:00pm 11.6 6.3 4.8 63 3.1 N 22 30 12 16 1020.0 1020.0 0.0
27/08:30pm 11.6 6.6 4.8 63 3.1 N 20 28 11 15 1019.8 1019.8 0.0
27/08:00pm 11.9 5.8 4.6 61 3.3 N 26 35 14 19 1019.5 1019.5 0.0
27/07:30pm 12.2 5.3 4.4 59 3.5 NNW 30 39 16 21 1019.2 1019.2 0.0
27/07:00pm 12.6 5.3 4.3 57 3.8 NNW 32 46 17 25 1018.7 1018.7 0.0
27/06:30pm 12.9 6.7 4.3 56 3.9 NNW 26 35 14 19 1018.6 1018.6 0.0
27/06:00pm 13.0 6.8 4.2 55 4.0 NNW 26 37 14 20 1018.2 1018.2 0.0
27/05:30pm 13.3 6.3 3.9 53 4.3 NNW 30 43 16 23 1018.4 1018.4 0.0
27/05:00pm 13.8 7.1 3.6 50 4.6 NNW 28 39 15 21 1018.1 1018.1 0.0
27/04:30pm 14.2 6.7 3.7 49 4.8 NNW 32 43 17 23 1017.8 1017.8 0.0
27/04:00pm 14.5 8.5 3.3 47 5.0 NNW 24 33 13 18 1017.8 1017.8 0.0
27/03:30pm 14.5 8.6 3.9 49 4.8 NNW 24 35 13 19 1018.2 1018.2 0.0
27/03:00pm 14.7 7.9 3.2 46 5.2 NNW 28 39 15 21 1018.1 1018.1 0.0
27/02:30pm 14.8 8.0 3.3 46 5.2 NNW 28 35 15 19 1018.5 1018.5 0.0
27/02:00pm 14.6 9.4 3.4 47 5.1 WNW 20 35 11 19 1019.0 1019.0 0.0
27/01:30pm 14.4 9.5 4.1 50 4.7 NW 19 30 10 16 1019.0 1019.0 0.0
27/01:00pm 14.1 8.1 3.6 49 4.7 NNW 24 35 13 19 1019.7 1019.7 0.0
27/12:30pm 14.0 7.7 3.8 50 4.6 NNW 26 33 14 18 1020.4 1020.5 0.0
27/12:00pm 14.0 9.2 4.9 54 4.2 NW 19 28 10 15 1021.1 1021.2 0.0
27/11:30am 12.5 6.9 3.2 53 4.1 WNW 22 35 12 19 1021.7 1021.8 0.0
27/11:00am 12.5 6.9 3.5 54 4.0 WNW 22 30 12 16 1021.6 1021.7 0.0
27/10:30am 12.2 6.2 3.2 54 4.0 WNW 24 35 13 19 1021.8 1021.9 0.0
27/10:00am 12.3 6.0 3.5 55 3.9 WNW 26 39 14 21 1021.7 1021.8 0.0
27/09:30am 12.2 6.9 2.9 53 4.1 NW 20 35 11 19 1021.7 1021.8 0.0
27/09:00am 11.0 5.4 3.5 60 3.3 NNW 22 30 12 16 1021.9 1022.0 0.0
27/08:30am 10.0 4.9 3.3 63 2.9 N 19 24 10 13 1022.5 1022.6 0.0
27/08:00am 9.9 4.8 3.2 63 2.9 NNW 19 26 10 14 1022.2 1022.3 0.0
27/07:30am 9.6 5.3 3.4 65 2.7 N 15 20 8 11 1022.1 1022.2 0.0
27/07:00am 9.9 5.6 3.2 63 2.9 NNW 15 19 8 10 1021.9 1022.0 0.0
27/06:30am 10.1 5.8 3.2 62 3.0 NNW 15 20 8 11 1021.5 1021.6 0.0
27/06:00am 10.0 5.7 3.5 64 2.8 NW 15 22 8 12 1021.2 1021.3 0.0
27/05:30am 9.8 5.9 3.3 64 2.8 NW 13 17 7 9 1021.1 1021.2 0.0
27/05:00am 9.9 5.6 3.2 63 2.9 NNW 15 22 8 12 1020.6 1020.7 0.0
27/04:30am 8.7 5.9 3.1 68 2.4 N 7 9 4 5 1020.9 1021.0 0.0
27/04:00am 9.1 5.9 3.1 66 2.6 NNW 9 13 5 7 1020.7 1020.8 0.0
27/03:30am 9.1 5.2 3.3 67 2.5 NNW 13 15 7 8 1020.7 1020.8 0.0
27/03:00am 9.0 5.4 3.0 66 2.6 NNW 11 15 6 8 1020.7 1020.8 0.0
27/02:30am 9.6 6.1 3.4 65 2.7 NNW 11 15 6 8 1021.1 1021.2 0.0
27/02:00am 10.1 6.2 3.4 63 2.9 NNW 13 17 7 9 1021.3 1021.4 0.0
27/01:30am 10.0 6.5 3.5 64 2.8 NNW 11 15 6 8 1021.4 1021.5 0.0
27/01:00am 10.0 6.9 3.5 64 2.8 N 9 11 5 6 1021.6 1021.7 0.0
27/12:30am 10.6 7.4 2.9 59 3.3 NW 9 13 5 7 1021.9 1022.0 0.0
27/12:00am 10.3 7.1 3.3 62 3.0 NNW 9 11 5 6 1021.9 1022.0 0.0
 
Date/Time
EST
Temp
°C
App
Temp
°C
Dew
Point
°C
Rel
Hum
%
Delta-T
°C
Wind Press
QNH
hPa
Press
MSL
hPa
Rain since
9am
mm
Dir  Spd
km/h
Gust
km/h
Spd
kts
Gust
kts
26/11:30pm 11.1 7.2 3.2 58 3.5 NW 13 19 7 10 1021.9 1022.0 0.0
26/11:00pm 11.2 7.2 3.0 57 3.6 NNW 13 20 7 11 1022.0 1022.1 0.0
26/10:30pm 11.3 7.0 3.1 57 3.6 NNW 15 20 8 11 1021.8 1021.9 0.0
26/10:00pm 11.3 6.6 3.3 58 3.5 NW 17 22 9 12 1021.7 1021.8 0.0
26/09:30pm 11.4 7.5 3.2 57 3.6 NW 13 22 7 12 1021.6 1021.7 0.0
26/09:00pm 11.5 7.2 3.5 58 3.5 NW 15 22 8 12 1021.7 1021.8 0.0
26/08:30pm 11.4 7.9 3.7 59 3.4 NW 11 17 6 9 1021.5 1021.6 0.0
26/08:00pm 10.5 7.5 4.0 64 2.9 NNW 9 13 5 7 1021.5 1021.6 0.0
26/07:30pm 10.5 7.8 3.8 63 3.0 WNW 7 9 4 5 1021.6 1021.7 0.0
26/07:00pm 11.7 8.4 4.4 61 3.3 WNW 11 19 6 10 1021.4 1021.5 0.0
26/06:30pm 11.8 8.6 5.0 63 3.1 WNW 11 17 6 9 1021.1 1021.2 0.0
26/06:00pm 12.0 8.8 5.2 63 3.1 WNW 11 15 6 8 1020.9 1021.0 0.0
26/05:30pm 12.1 9.3 5.0 62 3.3 W 9 15 5 8 1020.7 1020.8 0.0
26/05:00pm 12.4 8.2 3.6 55 3.9 W 15 20 8 11 1020.5 1020.6 0.0
26/04:30pm 12.7 8.7 3.1 52 4.2 WNW 13 20 7 11 1020.3 1020.4 0.0
26/04:00pm 12.6 8.4 3.8 55 3.9 WNW 15 20 8 11 1020.2 1020.3 0.0
26/03:30pm 12.6 8.0 3.6 54 4.0 WNW 17 24 9 13 1020.2 1020.3 0.0
26/03:00pm 12.3 7.7 3.8 56 3.8 WNW 17 26 9 14 1020.4 1020.5 0.0
26/02:30pm 12.4 8.0 4.6 59 3.6 WSW 17 22 9 12 1020.6 1020.7 0.0
26/02:00pm 12.4 8.0 4.9 60 3.4 W 17 22 9 12 1020.7 1020.8 0.0
26/01:30pm 12.2 7.2 4.7 60 3.4 W 20 32 11 17 1020.8 1020.9 0.0
26/01:00pm 12.4 7.4 6.5 67 2.8 WSW 22 32 12 17 1021.2 1021.3 0.0
26/12:30pm 12.8 7.7 5.9 63 3.2 W 22 33 12 18 1021.5 1021.6 0.0
26/12:00pm 12.5 7.2 5.0 60 3.4 W 22 33 12 18 1021.7 1021.8 0.0
26/11:30am 12.4 8.2 5.6 63 3.2 WNW 17 30 9 16 1021.8 1021.9 0.0
26/11:00am 11.6 6.7 5.3 65 2.9 WNW 20 28 11 15 1021.9 1022.0 0.0
26/10:30am 11.3 6.1 5.6 68 2.6 WNW 22 30 12 16 1021.9 1022.0 0.0
26/10:00am 10.7 6.2 6.3 74 2.0 WNW 19 28 10 15 1021.9 1022.0 0.0
26/09:30am 10.1 6.8 6.3 77 1.8 WNW 13 20 7 11 1022.0 1022.1 0.0
26/09:00am 9.6 5.6 6.7 82 1.3 NW 17 22 9 12 1021.9 1022.0 2.4
26/08:30am 9.0 6.1 6.6 85 1.1 NW 11 19 6 10 1021.8 1021.9 2.4
26/08:00am 8.5 5.6 6.5 87 0.9 NW 11 15 6 8 1021.7 1021.8 2.4
26/07:45am 8.4 5.1 6.5 88 0.9 NW 13 17 7 9 1021.7 1021.8 2.4
26/07:30am 8.0 5.1 6.3 89 0.8 NNW 11 17 6 9 1021.6 1021.7 2.4
26/07:07am 7.5 4.5 5.8 89 0.8 NNW 11 15 6 8 1021.4 1021.5 2.4
26/07:00am 7.7 4.7 6.0 89 0.8 NNW 11 15 6 8 1021.2 1021.3 2.4
26/06:30am 8.0 5.4 6.3 89 0.8 NW 9 13 5 7 1020.8 1020.9 2.4
26/06:00am 7.9 5.7 6.4 90 0.7 WNW 7 11 4 6 1020.7 1020.8 2.2
26/05:30am 7.3 5.2 5.6 89 0.8 NW 6 9 3 5 1020.3 1020.4 2.2
26/05:00am 8.2 4.9 6.5 89 0.8 W 13 17 7 9 1020.0 1020.0 2.2
26/04:30am 8.5 5.3 7.0 90 0.7 W 13 17 7 9 1019.7 1019.7 2.2
26/04:00am 8.0 6.1 6.6 91 0.6 NNW 6 7 3 4 1019.6 1019.6 2.2
26/03:30am 7.9 5.0 6.7 92 0.6 WNW 11 15 6 8 1019.3 1019.3 2.2
26/03:00am 7.4 4.4 6.2 92 0.5 NW 11 15 6 8 1019.4 1019.4 2.2
26/02:30am 6.9 4.2 5.5 91 0.6 NW 9 11 5 6 1019.3 1019.3 2.2
26/02:00am 7.4 4.8 5.9 90 0.7 WNW 9 13 5 7 1019.6 1019.6 2.2
26/01:30am 7.8 5.2 6.1 89 0.8 WNW 9 13 5 7 1019.6 1019.6 2.2
26/01:00am 8.3 5.8 6.4 88 0.9 WNW 9 13 5 7 1019.5 1019.5 2.2
26/12:30am 8.6 6.1 6.7 88 0.9 WNW 9 13 5 7 1019.4 1019.4 2.2
26/12:00am 9.3 7.0 7.4 88 0.9 WNW 9 13 5 7 1019.4 1019.4 2.2
 
Date/Time
EST
Temp
°C
App
Temp
°C
Dew
Point
°C
Rel
Hum
%
Delta-T
°C
Wind Press
QNH
hPa
Press
MSL
hPa
Rain since
9am
mm
Dir  Spd
km/h
Gust
km/h
Spd
kts
Gust
kts
25/11:52pm 9.3 7.0 7.4 88 0.9 W 9 13 5 7 1019.4 1019.4 2.2
25/11:40pm 9.4 7.2 7.7 89 0.8 SW 9 15 5 8 1019.4 1019.4 2.0
25/11:30pm 9.2 7.3 7.5 89 0.8 WSW 7 13 4 7 1019.3 1019.3 1.8
25/11:00pm 8.1 5.9 6.1 87 0.9 W 7 11 4 6 1019.2 1019.2 1.8
25/10:30pm 7.7 5.3 5.2 84 1.1 W 7 9 4 5 1019.1 1019.1 1.8
25/10:15pm 8.2 6.0 5.3 82 1.3 S 6 11 3 6 1019.1 1019.1 1.8
25/10:00pm 8.9 4.7 5.8 81 1.4 SW 17 41 9 22 1019.0 1019.0 1.6
25/09:55pm 8.8 4.6 5.7 81 1.4 SW 17 41 9 22 1019.3 1019.3 1.2
25/09:30pm 9.7 6.8 6.6 81 1.4 SW 11 13 6 7 1019.0 1019.0 0.0
25/09:00pm 9.6 7.0 6.1 79 1.6 WNW 9 9 5 5 1018.7 1018.7 0.0

Latest Capital City Observations: Canberra | Sydney | Melbourne | Brisbane | Adelaide | Perth | Hobart | Darwin

Other Formats:

Comma delimited format used in spreadsheet applications
http://www.bom.gov.au/fwo/IDV60901/IDV60901.94870.axf

JavaScript Object Notation format (JSON) in row-major order
http://www.bom.gov.au/fwo/IDV60901/IDV60901.94870.json